createdAt,value
2018-03-23T00:00:04.207Z,19.80
2018-03-23T00:02:31.548Z,22.87
2018-03-23T00:04:58.866Z,23.30
2018-03-23T00:07:26.167Z,23.57
2018-03-23T00:09:53.520Z,21.87
2018-03-23T00:12:20.829Z,22.90
2018-03-23T00:14:48.133Z,23.23
2018-03-23T00:17:15.438Z,22.90
2018-03-23T00:19:42.763Z,24.40
2018-03-23T00:22:10.063Z,22.80
2018-03-23T00:24:37.363Z,22.17
2018-03-23T00:27:04.642Z,22.83
2018-03-23T00:29:31.935Z,25.63
2018-03-23T00:31:59.218Z,25.07
2018-03-23T00:34:26.523Z,23.40
2018-03-23T00:36:53.859Z,23.93
2018-03-23T00:39:21.214Z,24.20
2018-03-23T00:41:48.507Z,24.20
2018-03-23T00:44:15.822Z,23.57
2018-03-23T00:46:43.160Z,27.07
2018-03-23T00:49:10.448Z,24.43
2018-03-23T00:51:37.733Z,28.23
2018-03-23T00:54:05.032Z,26.57
2018-03-23T00:56:32.315Z,27.03
2018-03-23T00:58:59.603Z,29.20
2018-03-23T01:01:26.887Z,25.57
2018-03-23T01:03:54.179Z,26.97
2018-03-23T01:06:21.492Z,24.87
2018-03-23T01:08:48.772Z,25.70
2018-03-23T01:11:16.086Z,26.07
2018-03-23T01:13:43.376Z,25.50
2018-03-23T01:16:10.667Z,26.47
2018-03-23T01:18:37.982Z,26.23
2018-03-23T01:21:05.259Z,26.03
2018-03-23T01:23:32.572Z,34.53
2018-03-23T01:25:59.850Z,25.90
2018-03-23T01:28:27.147Z,25.70
2018-03-23T01:30:54.423Z,27.60
2018-03-23T01:33:21.724Z,28.37
2018-03-23T01:35:49.041Z,26.60
2018-03-23T01:38:16.338Z,28.60
2018-03-23T01:40:43.633Z,28.67
2018-03-23T01:43:10.915Z,30.03
2018-03-23T01:45:38.218Z,29.77
2018-03-23T01:48:05.498Z,29.50
2018-03-23T01:50:32.822Z,29.67
2018-03-23T01:53:00.123Z,32.10
2018-03-23T01:55:27.432Z,30.37
2018-03-23T01:57:54.738Z,30.47
2018-03-23T02:00:22.059Z,32.80
2018-03-23T02:02:49.352Z,30.90
2018-03-23T02:05:16.630Z,31.53
2018-03-23T02:07:43.927Z,27.80
2018-03-23T02:10:11.828Z,31.57
2018-03-23T02:12:40.143Z,33.57
2018-03-23T02:15:07.428Z,28.70
2018-03-23T02:17:34.719Z,30.30
2018-03-23T02:20:02.022Z,29.47
2018-03-23T02:22:29.321Z,29.00
2018-03-23T02:24:56.616Z,29.50
2018-03-23T02:27:23.927Z,27.37
2018-03-23T02:29:51.226Z,26.87
2018-03-23T02:32:18.533Z,26.33
2018-03-23T02:34:45.839Z,29.20
2018-03-23T02:37:13.153Z,29.50
2018-03-23T02:39:40.466Z,26.60
2018-03-23T02:42:07.719Z,30.63
2018-03-23T02:44:35.047Z,28.13
2018-03-23T02:47:02.413Z,31.97
2018-03-23T02:49:29.702Z,28.90
2018-03-23T02:51:56.978Z,28.30
2018-03-23T02:54:24.308Z,29.60
2018-03-23T02:56:51.594Z,29.90
2018-03-23T02:59:18.927Z,29.10
2018-03-23T03:01:46.237Z,29.97
2018-03-23T03:04:13.562Z,29.73
2018-03-23T03:06:40.852Z,29.83
2018-03-23T03:09:08.139Z,27.23
2018-03-23T03:11:35.439Z,29.97
2018-03-23T03:14:02.739Z,28.60
2018-03-23T03:16:30.023Z,28.07
2018-03-23T03:18:57.318Z,27.77
2018-03-23T03:21:24.628Z,28.63
2018-03-23T03:23:51.922Z,31.17
2018-03-23T03:26:19.271Z,29.70
2018-03-23T03:28:46.579Z,30.07
2018-03-23T03:31:13.958Z,27.77
2018-03-23T03:33:41.240Z,30.27
2018-03-23T03:36:08.547Z,29.43
2018-03-23T03:38:35.848Z,28.40
2018-03-23T03:41:03.175Z,31.20
2018-03-23T03:43:30.483Z,28.53
2018-03-23T03:45:57.762Z,29.27
2018-03-23T03:48:25.085Z,28.57
2018-03-23T03:50:52.371Z,30.83
2018-03-23T03:53:19.686Z,30.70
2018-03-23T03:55:46.990Z,31.27
2018-03-23T03:58:14.302Z,27.23
2018-03-23T04:00:41.603Z,30.90
2018-03-23T04:03:08.894Z,29.50
2018-03-23T04:05:36.192Z,30.33
2018-03-23T04:08:03.544Z,29.57
2018-03-23T04:10:30.819Z,31.93
2018-03-23T04:12:58.114Z,30.23
2018-03-23T04:15:25.416Z,29.67
2018-03-23T04:17:52.827Z,29.37
2018-03-23T04:20:20.187Z,28.70
2018-03-23T04:22:47.472Z,28.70
2018-03-23T04:25:14.790Z,29.37
2018-03-23T04:27:42.690Z,27.63
2018-03-23T04:30:10.003Z,29.20
2018-03-23T04:32:37.299Z,29.70
2018-03-23T04:35:04.578Z,30.10
2018-03-23T04:37:31.900Z,28.47
2018-03-23T04:39:59.190Z,29.97
2018-03-23T04:42:26.479Z,28.20
2018-03-23T04:44:53.776Z,30.87
2018-03-23T04:47:21.053Z,32.63
2018-03-23T04:49:48.350Z,32.50
2018-03-23T04:52:15.643Z,30.33
2018-03-23T04:54:42.944Z,30.80
2018-03-23T04:57:10.256Z,32.20
2018-03-23T04:59:37.550Z,31.43
2018-03-23T05:02:04.834Z,31.97
2018-03-23T05:04:32.140Z,32.70
2018-03-23T05:06:59.475Z,32.97
2018-03-23T05:09:26.838Z,31.90
2018-03-23T05:11:54.134Z,29.80
2018-03-23T05:14:21.447Z,32.03
2018-03-23T05:16:48.744Z,32.70
2018-03-23T05:19:16.066Z,31.73
2018-03-23T05:21:43.343Z,34.00
2018-03-23T05:24:10.674Z,33.30
2018-03-23T05:26:37.973Z,32.47
2018-03-23T05:29:05.261Z,33.87
2018-03-23T05:31:32.594Z,34.27
2018-03-23T05:33:59.885Z,32.50
2018-03-23T05:36:27.351Z,33.93
2018-03-23T05:38:54.631Z,33.63
2018-03-23T05:41:21.920Z,32.63
2018-03-23T05:43:49.225Z,30.47
2018-03-23T05:46:16.544Z,30.90
2018-03-23T05:48:43.815Z,32.80
2018-03-23T05:51:11.104Z,28.80
2018-03-23T05:53:38.412Z,31.17
2018-03-23T05:56:05.700Z,31.97
2018-03-23T05:58:33.046Z,30.27
2018-03-23T06:01:00.484Z,32.53
2018-03-23T06:03:27.883Z,32.40
2018-03-23T06:05:55.186Z,28.63
2018-03-23T06:08:22.532Z,30.60
2018-03-23T06:10:49.839Z,28.10
2018-03-23T06:13:17.189Z,30.40
2018-03-23T06:15:44.483Z,26.80
2018-03-23T06:18:11.804Z,28.00
2018-03-23T06:20:39.150Z,27.63
2018-03-23T06:23:06.500Z,26.80
2018-03-23T06:25:33.813Z,32.33
2018-03-23T06:28:01.212Z,29.13
2018-03-23T06:30:28.470Z,26.47
2018-03-23T06:32:55.829Z,28.63
2018-03-23T06:35:23.200Z,28.70
2018-03-23T06:37:50.508Z,27.43
2018-03-23T06:40:18.201Z,27.30
2018-03-23T06:42:45.517Z,28.07
2018-03-23T06:47:44.672Z,26.60
2018-03-23T06:50:12.059Z,27.47
2018-03-23T06:52:39.460Z,25.87
2018-03-23T06:55:06.834Z,25.60
2018-03-23T06:57:34.131Z,25.10
2018-03-23T07:00:01.495Z,25.73
2018-03-23T07:02:28.877Z,27.33
2018-03-23T07:04:56.154Z,26.30
2018-03-23T07:09:55.528Z,25.70
2018-03-23T07:12:22.884Z,28.00
2018-03-23T07:14:50.267Z,27.50
2018-03-23T07:17:17.991Z,26.30
2018-03-23T07:22:19.309Z,26.63
2018-03-23T07:24:46.673Z,28.73
2018-03-23T07:27:14.301Z,25.33
2018-03-23T07:29:41.928Z,26.10
2018-03-23T07:32:09.365Z,27.67
2018-03-23T07:34:36.752Z,25.63
2018-03-23T07:44:40.051Z,26.00
2018-03-23T07:47:07.664Z,28.50
2018-03-23T07:49:34.978Z,27.93
2018-03-23T07:52:02.300Z,28.73
2018-03-23T07:54:29.631Z,29.77
2018-03-23T07:56:56.962Z,29.73
2018-03-23T08:01:55.875Z,27.70
2018-03-23T08:04:23.175Z,25.60
2018-03-23T08:06:50.503Z,29.40
2018-03-23T08:09:19.714Z,27.67
2018-03-23T08:11:47.103Z,31.80
2018-03-23T08:14:14.466Z,27.97
2018-03-23T08:16:41.885Z,28.40
2018-03-23T08:19:09.228Z,28.57
2018-03-23T08:21:36.624Z,27.80
2018-03-23T08:24:03.915Z,28.80
2018-03-23T08:29:06.592Z,26.90
2018-03-23T08:34:06.459Z,26.43
2018-03-23T08:36:33.804Z,26.80
2018-03-23T08:39:01.180Z,27.10
2018-03-23T08:41:28.695Z,27.73
2018-03-23T08:43:56.065Z,24.63
2018-03-23T08:48:54.965Z,26.43
2018-03-23T08:51:22.272Z,26.20
2018-03-23T08:53:49.730Z,23.43
2018-03-23T08:56:17.425Z,25.73
2018-03-23T08:58:45.533Z,28.40
2018-03-23T09:01:12.853Z,24.50
2018-03-23T09:03:40.227Z,23.43
2018-03-23T09:06:09.259Z,24.93
2018-03-23T09:08:37.950Z,25.10
2018-03-23T09:11:05.275Z,23.97
2018-03-23T09:16:13.178Z,21.80
2018-03-23T09:18:40.643Z,24.13
2018-03-23T09:21:08.044Z,26.52
2018-03-23T09:23:35.502Z,24.37
2018-03-23T09:26:02.902Z,23.60
2018-03-23T09:31:43.026Z,22.33
2018-03-23T09:34:10.346Z,23.97
2018-03-23T09:36:39.497Z,21.47
2018-03-23T09:39:06.828Z,20.80
2018-03-23T09:41:34.216Z,21.47
2018-03-23T09:46:42.272Z,22.27
2018-03-23T09:49:16.116Z,20.57
2018-03-23T09:51:43.675Z,21.40
2018-03-23T09:54:11.044Z,20.93
2018-03-23T09:59:25.605Z,18.83
2018-03-23T10:01:53.270Z,18.17
2018-03-23T10:04:20.639Z,20.00
2018-03-23T10:12:21.853Z,20.67
2018-03-23T10:14:49.399Z,19.63
2018-03-23T10:17:16.755Z,20.17
2018-03-23T10:19:46.034Z,19.50
2018-03-23T10:25:11.262Z,19.47
2018-03-23T10:27:38.645Z,18.53
2018-03-23T10:30:05.976Z,18.97
2018-03-23T10:37:37.339Z,18.90
2018-03-23T10:40:13.155Z,17.73
2018-03-23T10:55:53.562Z,18.90
2018-03-23T10:58:21.076Z,17.90
2018-03-23T11:00:55.848Z,18.07
2018-03-23T11:03:23.416Z,17.37
2018-03-23T11:08:22.323Z,16.33
2018-03-23T11:10:49.618Z,19.00
2018-03-23T11:13:17.147Z,16.10
2018-03-23T11:18:16.239Z,20.20
2018-03-23T11:20:43.575Z,18.23
2018-03-23T11:23:12.592Z,17.93
2018-03-23T11:25:40.360Z,18.60
2018-03-23T11:28:07.964Z,17.20
2018-03-23T11:30:36.461Z,16.37
2018-03-23T11:33:05.072Z,17.23
2018-03-23T11:35:32.430Z,16.70
2018-03-23T11:38:00.419Z,17.67
2018-03-23T11:45:33.517Z,16.10
2018-03-23T11:48:00.839Z,18.77
2018-03-23T11:55:31.774Z,18.27
2018-03-23T11:57:59.533Z,17.20
2018-03-23T12:02:58.780Z,18.40
2018-03-23T12:05:26.311Z,20.50
2018-03-23T12:15:28.653Z,21.33
2018-03-23T12:20:28.690Z,18.93
2018-03-23T12:22:56.085Z,20.70
2018-03-23T12:27:55.510Z,19.77
2018-03-23T12:30:24.591Z,19.27
2018-03-23T12:32:51.980Z,21.80
2018-03-23T12:35:19.543Z,21.67
2018-03-23T12:37:48.768Z,18.90
2018-03-23T12:40:16.261Z,17.10
2018-03-23T12:42:47.288Z,19.20
2018-03-23T12:45:15.788Z,19.47
2018-03-23T12:50:16.254Z,19.33
2018-03-23T12:57:48.501Z,19.07
2018-03-23T13:02:56.598Z,16.47
2018-03-23T13:07:55.806Z,18.80
2018-03-23T13:10:23.355Z,19.57
2018-03-23T13:12:50.896Z,17.70
2018-03-23T13:20:23.618Z,19.80
2018-03-23T13:22:50.990Z,19.00
2018-03-23T13:27:51.115Z,18.20
2018-03-23T13:30:19.024Z,16.60
2018-03-23T13:35:21.531Z,16.07
2018-03-23T13:40:20.539Z,16.10
2018-03-23T13:42:47.890Z,15.83
2018-03-23T13:45:15.268Z,17.00
2018-03-23T13:50:14.473Z,16.53
2018-03-23T13:55:13.964Z,17.33
2018-03-23T13:57:41.478Z,16.50
2018-03-23T14:00:24.582Z,14.70
2018-03-23T14:05:23.711Z,18.40
2018-03-23T14:12:54.512Z,17.70
2018-03-23T14:20:25.168Z,21.33
2018-03-23T14:22:52.507Z,16.33
2018-03-23T14:27:53.310Z,15.70
2018-03-23T14:30:20.715Z,14.13
2018-03-23T14:32:48.378Z,13.80
2018-03-23T14:35:16.360Z,16.20
2018-03-23T14:37:45.720Z,14.50
2018-03-23T14:40:14.177Z,13.10
2018-03-23T14:42:41.566Z,13.47
2018-03-23T14:45:08.944Z,15.20
2018-03-23T14:52:43.352Z,12.80
2018-03-23T14:55:12.432Z,14.77
2018-03-23T14:57:39.836Z,15.07
2018-03-23T15:00:07.509Z,15.10
2018-03-23T15:02:34.777Z,14.77
2018-03-23T15:05:02.150Z,14.10
2018-03-23T15:10:01.459Z,14.40
2018-03-23T15:12:30.655Z,13.97
2018-03-23T15:14:58.654Z,13.30
2018-03-23T15:17:26.369Z,12.10
2018-03-23T15:22:27.083Z,13.73
2018-03-23T15:24:55.125Z,12.40
2018-03-23T15:29:54.081Z,14.33
2018-03-23T15:32:21.656Z,12.87
2018-03-23T15:45:08.491Z,13.13
2018-03-23T15:47:37.677Z,12.50
2018-03-23T15:52:39.024Z,12.00
2018-03-23T15:55:06.415Z,12.63
2018-03-23T15:57:33.901Z,11.90
2018-03-23T16:00:01.317Z,13.13
2018-03-23T16:05:06.582Z,11.43
2018-03-23T16:10:05.688Z,13.00
2018-03-23T16:12:34.789Z,12.47
2018-03-23T16:17:33.933Z,13.30
2018-03-23T16:22:32.928Z,12.03
2018-03-23T16:27:32.686Z,13.47
2018-03-23T16:30:00.025Z,13.50
2018-03-23T16:32:27.501Z,12.27
2018-03-23T16:34:54.952Z,13.97
2018-03-23T16:37:22.267Z,12.93
2018-03-23T16:39:49.767Z,13.70
2018-03-23T16:44:50.218Z,12.77
2018-03-23T17:02:31.536Z,13.73
2018-03-23T17:10:02.876Z,12.50
2018-03-23T17:12:30.294Z,15.50
2018-03-23T17:14:57.669Z,12.90
2018-03-23T17:23:09.133Z,14.90
2018-03-23T17:25:36.489Z,13.13
2018-03-23T17:30:37.276Z,14.10
2018-03-23T17:33:04.625Z,13.67
2018-03-23T17:35:31.979Z,14.80
2018-03-23T17:37:59.386Z,13.80
2018-03-23T17:42:59.348Z,16.80
2018-03-23T17:45:26.784Z,14.17
2018-03-23T17:47:54.127Z,17.27
2018-03-23T17:50:21.609Z,16.93
2018-03-23T17:55:23.741Z,13.70
2018-03-23T17:57:51.098Z,14.17
2018-03-23T18:00:18.533Z,16.30
2018-03-23T18:02:46.033Z,13.80
2018-03-23T18:05:13.509Z,14.13
2018-03-23T18:07:42.768Z,14.60
2018-03-23T18:10:13.744Z,14.10
2018-03-23T18:12:41.292Z,14.60
2018-03-23T18:15:09.424Z,12.23
2018-03-23T18:20:08.518Z,14.57
2018-03-23T18:25:07.512Z,14.10
2018-03-23T18:27:34.873Z,17.60
2018-03-23T18:32:34.599Z,15.37
2018-03-23T18:35:02.078Z,14.17
2018-03-23T18:37:29.370Z,22.87
2018-03-23T18:39:56.836Z,14.13
2018-03-23T18:44:55.957Z,18.37
2018-03-23T18:57:31.949Z,20.10
2018-03-23T18:59:59.301Z,17.97
2018-03-23T19:04:58.930Z,19.63
2018-03-23T19:07:26.405Z,19.70
2018-03-23T19:12:25.791Z,19.57
2018-03-23T19:14:53.973Z,19.00
2018-03-23T19:17:21.341Z,20.97
2018-03-23T19:19:48.734Z,19.77
2018-03-23T19:22:16.126Z,18.20
2018-03-23T19:24:43.432Z,21.40
2018-03-23T19:34:46.855Z,23.40
2018-03-23T19:42:17.507Z,21.17
2018-03-23T19:47:16.434Z,19.67
2018-03-23T19:49:43.776Z,19.10
2018-03-23T19:52:11.212Z,17.97
2018-03-23T19:57:13.644Z,20.10
2018-03-23T20:07:18.593Z,19.90
2018-03-23T20:09:46.041Z,19.23
2018-03-23T20:14:46.412Z,19.03
2018-03-23T20:17:13.788Z,18.93
2018-03-23T20:19:41.350Z,19.67
2018-03-23T20:22:08.715Z,18.13
2018-03-23T20:24:36.028Z,19.87
2018-03-23T20:27:24.010Z,20.43
2018-03-23T20:29:55.759Z,18.17
2018-03-23T20:37:33.742Z,19.43
2018-03-23T20:40:01.065Z,20.43
2018-03-23T20:42:28.451Z,19.23
2018-03-23T20:47:27.300Z,19.33
2018-03-23T20:52:26.539Z,17.50
2018-03-23T20:54:54.552Z,18.73
2018-03-23T20:59:53.506Z,18.53
2018-03-23T21:10:02.539Z,19.03
2018-03-23T21:12:29.894Z,18.37
2018-03-23T21:17:32.720Z,15.60
2018-03-23T21:20:00.140Z,18.07
2018-03-23T21:22:27.530Z,16.50
2018-03-23T21:24:54.890Z,17.20
2018-03-23T21:27:23.918Z,18.90
2018-03-23T21:32:22.810Z,16.50
2018-03-23T21:34:50.215Z,17.30
2018-03-23T21:37:17.644Z,17.87
2018-03-23T21:39:44.933Z,16.90
2018-03-23T21:42:12.766Z,15.20
2018-03-23T21:44:40.139Z,14.50
2018-03-23T21:47:07.536Z,16.17
2018-03-23T21:49:35.057Z,16.73
2018-03-23T21:52:02.471Z,15.20
2018-03-23T21:54:33.574Z,17.33
2018-03-23T21:57:00.901Z,17.10
2018-03-23T22:01:59.808Z,17.37
2018-03-23T22:04:30.753Z,16.40
2018-03-23T22:06:58.084Z,15.60
2018-03-23T22:09:25.751Z,16.77
2018-03-23T22:11:53.161Z,17.77
2018-03-23T22:14:20.721Z,16.70
2018-03-23T22:16:48.008Z,14.63
2018-03-23T22:19:15.380Z,14.93
2018-03-23T22:21:43.058Z,16.10
2018-03-23T22:24:10.508Z,15.87
2018-03-23T22:26:37.840Z,14.27
2018-03-23T22:29:05.264Z,14.93
2018-03-23T22:31:32.589Z,15.30
2018-03-23T22:34:00.834Z,15.50
2018-03-23T22:36:28.203Z,14.60
2018-03-23T22:38:55.495Z,15.40
2018-03-23T22:41:22.879Z,17.20
2018-03-23T22:43:54.159Z,16.10
2018-03-23T22:46:21.957Z,13.67
2018-03-23T22:48:49.516Z,14.80
2018-03-23T22:56:20.386Z,15.07
2018-03-23T22:58:47.683Z,16.77
2018-03-23T23:03:46.984Z,17.00
2018-03-23T23:06:14.416Z,16.20
2018-03-23T23:08:41.740Z,18.10
2018-03-23T23:11:10.738Z,17.63
2018-03-23T23:13:39.873Z,17.43
2018-03-23T23:18:38.812Z,17.43
2018-03-23T23:21:09.656Z,16.53
2018-03-23T23:26:08.726Z,20.13
2018-03-23T23:31:07.649Z,21.27
2018-03-23T23:36:08.638Z,24.47
2018-03-23T23:38:36.004Z,19.17
2018-03-23T23:41:03.372Z,21.60
2018-03-23T23:43:30.773Z,19.10
2018-03-23T23:45:58.126Z,19.00
2018-03-23T23:48:25.427Z,17.97
2018-03-23T23:50:52.737Z,17.27
2018-03-23T23:53:21.024Z,20.10
2018-03-23T23:55:48.331Z,21.37
2018-03-23T23:58:15.820Z,17.53
